Morrow, LA (71356)

6:38 PM CDT on April 21, 2015 (GMT -0500)
WMGUILLORYRD | | Change Station
CLOSE
Current Station
Personal Weather Station
Location: Plaucheville, LA
Elevation: 43 ft
Nearby Weather Stations

Elev 43 ft 30.94 °N, 91.97 °W | Updated 7 seconds ago

Clear
Clear
76.1 °F
Feels Like 78 °F
N
2.0
Wind Variable Wind from North
Gusts 3.1 mph

Today
High -- | Low -- °F
--% Chance of Precip.
Yesterday
High -- | Low -- °F
Precip. -- in
6:34 AM 7:40 PM
Waxing Crescent, 13% visible
Pressure 29.97 in
Visibility 10.0 miles
Clouds Clear
Heat Index 78 °F
Dew Point 53 °F
Humidity 44%
Rainfall 0.00 in
Snow Depth Not available.
UV 1 out of 12
Pollen 7.90 out of 12
Air Quality Not available.
Flu Activity Local Activity
METAR KOPL 212315Z AUTO 04003KT 10SM CLR 25/09 A2997 RMK AO2 T02470090

More Conditions Fewer Conditions

Pressure 29.97 in
Visibility 10.0 miles
Clouds Clear
Heat Index 78 °F
Dew Point 53 °F
Humidity 44%
Rainfall 0.00 in
Snow Depth Not available.
UV 1 out of 12
Pollen 7.90 out of 12
Air Quality Not available.
Flu Activity Local Activity
METAR KOPL 212315Z AUTO 04003KT 10SM CLR 25/09 A2997 RMK AO2 T02470090

More Conditions Fewer Conditions

10-Day Weather Forecast

Almanac

Astronomy

Apr. 21, 2015 Rise Set
Actual Time
Civil Twilight
Nautical Twilight
Astronomical Twilight
Moon
Length of Visible Light
Length of Day
Tomorrow will be .
, % of the Moon is Illuminated

Today's Extremes

State Highs State Lows

Community

WunderPhotos

Upload Photos

1,815,579 photos uploaded!

WunderBlogs® & News

Nearby

Air Quality

  Air Quality AQ Index Pollutant
Not available.

Snow Depth

Station Depth Elevation

Earthquake Activity

City Distance Mag. Time & Date
Minimum magnitude displayed is 2.5.

Coastal Water Temperatures

Place Temperature

Stations

Nearby Weather Stations

Station Location Temp. Windchill Dew Point Humidity Wind Precip. Elev Updated Type